Aérodrome :







RETROUVEZ-NOUS SUR...

 
LOGIN :

S'inscrire | Disclaimer

   EN    FR    IT 

 









Légende :    VFR   VFR Marginal   IFR   IFR Intensif   IFR Très Intensif
Visi : 
Plafond : 
>= 8 km
>= 3000ft
5 à 8 km
1000 à 3000 ft
1500m à 5 km
500 à 1000 ft
800 à 1500m
200 à 500 ft
< 800m
< 200 ft
Symboles :   Orages  Brouillard  Fortes neiges  Fortes précipitations  Vent > 20 kt






- Altitude de l'aérodrome : 192 ft
- Code IATA : BGR


KBGR - Bangor International

DERNIER METAR :
  • 201153Z 01007KT 10SM OVC006 01/00 A2992 RMK AO2 SNB16E47 SLP135 P0000 60000 70001 T00060000 10011 20006 56001

METARs EXPIRÉS :
  • 201053Z 36005KT 9SM BKN009 OVC015 01/00 A2993 RMK AO2 DZE03SNB03E44 CIG 006V012 SLP136 P0000 T00060000
  • 201034Z 02009KT 9SM -SN FEW005 BKN017 01/00 A2991 RMK AO2 DZE03SNB03 P0000 T00060000
  • 200953Z 02005KT 8SM -DZ OVC006 01/00 A2993 RMK AO2 DZB45 SLP136 P0000 T00110000

TAF KBGR
Valide du 20 à 12h jusqu'au 21 à 12h UTC


201137Z 2012/2112 01007KT P6SM BKN009 OVC015
FM201800 01007KT P6SM OVC020
FM210300 36007KT P6SM OVC035



MET'MAP, la Météo Aéronautique d'un coup d'oeil ! - Copyright ORBIFLY Décembre 2007 - Disclaimer

ORBIFLY MET'MAP TEAM :

Programmation & Développement : Alexandra Zaïnal
Conception & Développement : Baudouin d'Aumeries
Co-Programmation & Développement : Marc-Olivier Méhu
Soutien technique & logistique : Manuel Goepfert

Contact : metmap@orbifly.com




SOURCES & CREDITS :

   NOAA